sensor_id;sensor_type;location;lat;lon;timestamp;P1;durP1;ratioP1;P2;durP2;ratioP2
9156;SDS011;4613;48.392;9.998;2023-06-22T00:02:14;5.53;;;2.80;;
9156;SDS011;4613;48.392;9.998;2023-06-22T00:05:03;3.90;;;3.20;;
9156;SDS011;4613;48.392;9.998;2023-06-22T00:07:52;5.57;;;3.10;;
9156;SDS011;4613;48.392;9.998;2023-06-22T00:10:41;5.83;;;3.10;;
9156;SDS011;4613;48.392;9.998;2023-06-22T00:13:31;4.20;;;3.03;;
9156;SDS011;4613;48.392;9.998;2023-06-22T00:16:20;4.10;;;3.20;;
9156;SDS011;4613;48.392;9.998;2023-06-22T00:19:10;4.00;;;3.13;;
9156;SDS011;4613;48.392;9.998;2023-06-22T00:22:00;3.70;;;3.03;;
9156;SDS011;4613;48.392;9.998;2023-06-22T00:24:52;4.13;;;3.30;;
9156;SDS011;4613;48.392;9.998;2023-06-22T00:27:40;4.20;;;3.10;;
9156;SDS011;4613;48.392;9.998;2023-06-22T00:30:30;4.73;;;3.40;;
9156;SDS011;4613;48.392;9.998;2023-06-22T00:33:20;5.97;;;2.97;;
9156;SDS011;4613;48.392;9.998;2023-06-22T00:36:09;3.77;;;2.90;;
9156;SDS011;4613;48.392;9.998;2023-06-22T00:39:01;4.97;;;2.97;;
9156;SDS011;4613;48.392;9.998;2023-06-22T00:41:51;4.30;;;3.17;;
9156;SDS011;4613;48.392;9.998;2023-06-22T00:44:40;4.00;;;3.07;;
9156;SDS011;4613;48.392;9.998;2023-06-22T00:47:30;4.03;;;3.30;;
9156;SDS011;4613;48.392;9.998;2023-06-22T00:50:20;2.70;;;2.50;;
9156;SDS011;4613;48.392;9.998;2023-06-22T00:53:11;4.03;;;3.30;;
9156;SDS011;4613;48.392;9.998;2023-06-22T00:56:01;5.03;;;3.10;;
9156;SDS011;4613;48.392;9.998;2023-06-22T00:58:52;3.13;;;2.83;;
9156;SDS011;4613;48.392;9.998;2023-06-22T01:01:42;4.20;;;3.13;;
9156;SDS011;4613;48.392;9.998;2023-06-22T01:04:35;2.90;;;2.53;;
9156;SDS011;4613;48.392;9.998;2023-06-22T01:07:28;3.50;;;3.20;;
9156;SDS011;4613;48.392;9.998;2023-06-22T01:10:32;4.03;;;3.17;;
9156;SDS011;4613;48.392;9.998;2023-06-22T01:16:49;4.87;;;2.67;;
9156;SDS011;4613;48.392;9.998;2023-06-22T01:19:44;3.50;;;3.00;;
9156;SDS011;4613;48.392;9.998;2023-06-22T01:23:33;2.70;;;2.43;;
9156;SDS011;4613;48.392;9.998;2023-06-22T01:29:32;4.10;;;2.97;;
9156;SDS011;4613;48.392;9.998;2023-06-22T01:32:22;3.70;;;3.03;;
9156;SDS011;4613;48.392;9.998;2023-06-22T01:35:12;3.40;;;2.97;;
9156;SDS011;4613;48.392;9.998;2023-06-22T01:38:02;3.93;;;3.00;;
9156;SDS011;4613;48.392;9.998;2023-06-22T01:40:52;5.23;;;3.23;;
9156;SDS011;4613;48.392;9.998;2023-06-22T01:43:41;4.90;;;3.00;;
9156;SDS011;4613;48.392;9.998;2023-06-22T01:46:34;4.27;;;3.07;;
9156;SDS011;4613;48.392;9.998;2023-06-22T01:49:24;3.50;;;3.10;;
9156;SDS011;4613;48.392;9.998;2023-06-22T01:52:14;3.63;;;3.03;;
9156;SDS011;4613;48.392;9.998;2023-06-22T01:55:03;5.23;;;2.93;;
9156;SDS011;4613;48.392;9.998;2023-06-22T01:57:54;3.27;;;2.80;;
9156;SDS011;4613;48.392;9.998;2023-06-22T02:00:45;4.07;;;3.23;;
9156;SDS011;4613;48.392;9.998;2023-06-22T02:03:44;2.63;;;2.43;;
9156;SDS011;4613;48.392;9.998;2023-06-22T02:06:55;3.70;;;3.10;;
9156;SDS011;4613;48.392;9.998;2023-06-22T02:09:47;3.57;;;3.00;;
9156;SDS011;4613;48.392;9.998;2023-06-22T02:12:38;3.70;;;2.90;;
9156;SDS011;4613;48.392;9.998;2023-06-22T02:15:30;3.40;;;2.63;;
9156;SDS011;4613;48.392;9.998;2023-06-22T02:18:20;4.07;;;3.13;;
9156;SDS011;4613;48.392;9.998;2023-06-22T02:21:09;4.20;;;3.37;;
9156;SDS011;4613;48.392;9.998;2023-06-22T02:23:58;5.97;;;3.10;;
9156;SDS011;4613;48.392;9.998;2023-06-22T02:26:48;3.83;;;3.23;;
9156;SDS011;4613;48.392;9.998;2023-06-22T02:29:38;4.13;;;3.00;;
9156;SDS011;4613;48.392;9.998;2023-06-22T02:32:28;3.20;;;2.90;;
9156;SDS011;4613;48.392;9.998;2023-06-22T02:35:17;4.00;;;3.20;;
9156;SDS011;4613;48.392;9.998;2023-06-22T02:38:08;4.20;;;3.50;;
9156;SDS011;4613;48.392;9.998;2023-06-22T02:40:57;3.27;;;2.80;;
9156;SDS011;4613;48.392;9.998;2023-06-22T02:43:47;5.20;;;3.37;;
9156;SDS011;4613;48.392;9.998;2023-06-22T02:46:36;4.03;;;3.00;;
9156;SDS011;4613;48.392;9.998;2023-06-22T02:49:25;5.03;;;3.20;;
9156;SDS011;4613;48.392;9.998;2023-06-22T02:52:14;3.80;;;3.10;;
9156;SDS011;4613;48.392;9.998;2023-06-22T02:55:03;5.07;;;3.40;;
9156;SDS011;4613;48.392;9.998;2023-06-22T02:57:53;3.87;;;2.73;;
9156;SDS011;4613;48.392;9.998;2023-06-22T03:00:43;4.50;;;3.00;;
9156;SDS011;4613;48.392;9.998;2023-06-22T03:03:33;3.13;;;2.80;;
9156;SDS011;4613;48.392;9.998;2023-06-22T03:06:22;8.03;;;5.30;;
9156;SDS011;4613;48.392;9.998;2023-06-22T03:09:11;3.50;;;3.17;;
9156;SDS011;4613;48.392;9.998;2023-06-22T03:12:00;4.10;;;3.27;;
9156;SDS011;4613;48.392;9.998;2023-06-22T03:14:58;4.20;;;3.10;;
9156;SDS011;4613;48.392;9.998;2023-06-22T03:17:47;3.23;;;2.80;;
9156;SDS011;4613;48.392;9.998;2023-06-22T03:20:36;3.33;;;3.00;;
9156;SDS011;4613;48.392;9.998;2023-06-22T03:23:26;4.87;;;3.07;;
9156;SDS011;4613;48.392;9.998;2023-06-22T03:26:18;6.53;;;3.20;;
9156;SDS011;4613;48.392;9.998;2023-06-22T03:29:08;3.80;;;3.00;;
9156;SDS011;4613;48.392;9.998;2023-06-22T03:31:57;3.80;;;2.97;;
9156;SDS011;4613;48.392;9.998;2023-06-22T03:34:47;5.87;;;3.50;;
9156;SDS011;4613;48.392;9.998;2023-06-22T03:37:36;4.47;;;3.20;;
9156;SDS011;4613;48.392;9.998;2023-06-22T03:40:25;3.43;;;2.87;;
9156;SDS011;4613;48.392;9.998;2023-06-22T03:43:14;4.83;;;3.03;;
9156;SDS011;4613;48.392;9.998;2023-06-22T03:46:03;4.43;;;3.20;;
9156;SDS011;4613;48.392;9.998;2023-06-22T03:48:53;3.10;;;2.80;;
9156;SDS011;4613;48.392;9.998;2023-06-22T03:51:43;4.27;;;3.17;;
9156;SDS011;4613;48.392;9.998;2023-06-22T03:54:32;4.77;;;2.83;;
9156;SDS011;4613;48.392;9.998;2023-06-22T03:57:21;4.43;;;3.30;;
9156;SDS011;4613;48.392;9.998;2023-06-22T04:00:10;4.17;;;3.17;;
9156;SDS011;4613;48.392;9.998;2023-06-22T04:03:04;3.97;;;3.00;;
9156;SDS011;4613;48.392;9.998;2023-06-22T04:05:53;4.17;;;3.03;;
9156;SDS011;4613;48.392;9.998;2023-06-22T04:08:44;5.13;;;3.07;;
9156;SDS011;4613;48.392;9.998;2023-06-22T04:11:36;2.83;;;2.53;;
9156;SDS011;4613;48.392;9.998;2023-06-22T04:14:26;2.90;;;2.67;;
9156;SDS011;4613;48.392;9.998;2023-06-22T04:17:15;3.57;;;2.80;;
9156;SDS011;4613;48.392;9.998;2023-06-22T04:20:04;3.47;;;3.00;;
9156;SDS011;4613;48.392;9.998;2023-06-22T04:22:55;4.83;;;2.93;;
9156;SDS011;4613;48.392;9.998;2023-06-22T04:26:03;2.87;;;2.60;;
9156;SDS011;4613;48.392;9.998;2023-06-22T04:28:55;3.83;;;2.80;;
9156;SDS011;4613;48.392;9.998;2023-06-22T04:31:44;5.33;;;3.03;;
9156;SDS011;4613;48.392;9.998;2023-06-22T04:34:39;3.60;;;2.77;;
9156;SDS011;4613;48.392;9.998;2023-06-22T04:37:29;4.17;;;2.90;;
9156;SDS011;4613;48.392;9.998;2023-06-22T04:40:22;3.23;;;2.93;;
9156;SDS011;4613;48.392;9.998;2023-06-22T04:43:12;3.40;;;2.60;;
9156;SDS011;4613;48.392;9.998;2023-06-22T04:46:00;3.60;;;2.70;;
9156;SDS011;4613;48.392;9.998;2023-06-22T04:48:51;5.10;;;2.80;;
9156;SDS011;4613;48.392;9.998;2023-06-22T04:51:41;3.17;;;2.87;;
9156;SDS011;4613;48.392;9.998;2023-06-22T04:54:30;2.53;;;2.33;;
9156;SDS011;4613;48.392;9.998;2023-06-22T04:57:21;3.80;;;2.53;;
9156;SDS011;4613;48.392;9.998;2023-06-22T05:00:20;4.07;;;2.50;;
9156;SDS011;4613;48.392;9.998;2023-06-22T05:03:11;4.53;;;3.10;;
9156;SDS011;4613;48.392;9.998;2023-06-22T05:06:00;3.77;;;2.40;;
9156;SDS011;4613;48.392;9.998;2023-06-22T05:08:53;5.50;;;2.90;;
9156;SDS011;4613;48.392;9.998;2023-06-22T05:11:46;3.23;;;2.73;;
9156;SDS011;4613;48.392;9.998;2023-06-22T05:14:35;3.37;;;2.80;;
9156;SDS011;4613;48.392;9.998;2023-06-22T05:17:25;4.87;;;3.13;;
9156;SDS011;4613;48.392;9.998;2023-06-22T05:20:14;3.50;;;3.00;;
9156;SDS011;4613;48.392;9.998;2023-06-22T05:23:06;3.47;;;2.73;;
9156;SDS011;4613;48.392;9.998;2023-06-22T05:25:56;4.87;;;2.70;;
9156;SDS011;4613;48.392;9.998;2023-06-22T05:28:46;3.00;;;2.60;;
9156;SDS011;4613;48.392;9.998;2023-06-22T05:31:36;3.80;;;2.80;;
9156;SDS011;4613;48.392;9.998;2023-06-22T05:34:25;4.17;;;2.70;;
9156;SDS011;4613;48.392;9.998;2023-06-22T05:37:15;2.50;;;2.30;;
9156;SDS011;4613;48.392;9.998;2023-06-22T05:40:04;2.83;;;2.57;;
9156;SDS011;4613;48.392;9.998;2023-06-22T05:42:55;4.90;;;2.90;;
9156;SDS011;4613;48.392;9.998;2023-06-22T05:45:44;5.47;;;2.37;;
9156;SDS011;4613;48.392;9.998;2023-06-22T05:48:34;4.37;;;3.00;;
9156;SDS011;4613;48.392;9.998;2023-06-22T05:51:23;2.70;;;2.50;;
9156;SDS011;4613;48.392;9.998;2023-06-22T05:54:13;4.10;;;2.70;;
9156;SDS011;4613;48.392;9.998;2023-06-22T05:57:04;3.60;;;2.77;;
9156;SDS011;4613;48.392;9.998;2023-06-22T05:59:53;3.20;;;2.43;;
9156;SDS011;4613;48.392;9.998;2023-06-22T06:02:43;3.50;;;2.23;;
9156;SDS011;4613;48.392;9.998;2023-06-22T06:05:33;4.10;;;2.70;;
9156;SDS011;4613;48.392;9.998;2023-06-22T06:08:23;4.60;;;2.50;;
9156;SDS011;4613;48.392;9.998;2023-06-22T06:11:12;3.67;;;2.50;;
9156;SDS011;4613;48.392;9.998;2023-06-22T06:14:02;3.03;;;2.73;;
9156;SDS011;4613;48.392;9.998;2023-06-22T06:16:51;2.87;;;2.10;;
9156;SDS011;4613;48.392;9.998;2023-06-22T06:19:41;3.73;;;2.67;;
9156;SDS011;4613;48.392;9.998;2023-06-22T06:22:30;4.23;;;2.73;;
9156;SDS011;4613;48.392;9.998;2023-06-22T06:25:19;3.93;;;2.47;;
9156;SDS011;4613;48.392;9.998;2023-06-22T06:28:10;2.70;;;2.50;;
9156;SDS011;4613;48.392;9.998;2023-06-22T06:31:00;3.13;;;2.70;;
9156;SDS011;4613;48.392;9.998;2023-06-22T06:33:49;3.30;;;2.70;;
9156;SDS011;4613;48.392;9.998;2023-06-22T06:36:38;3.13;;;2.60;;
9156;SDS011;4613;48.392;9.998;2023-06-22T06:39:27;2.53;;;2.33;;
9156;SDS011;4613;48.392;9.998;2023-06-22T06:42:17;3.20;;;2.50;;
9156;SDS011;4613;48.392;9.998;2023-06-22T06:45:08;3.57;;;2.80;;
9156;SDS011;4613;48.392;9.998;2023-06-22T06:47:58;4.00;;;2.80;;
9156;SDS011;4613;48.392;9.998;2023-06-22T06:50:47;4.53;;;2.90;;
9156;SDS011;4613;48.392;9.998;2023-06-22T06:53:39;4.50;;;2.63;;
9156;SDS011;4613;48.392;9.998;2023-06-22T06:56:28;3.47;;;2.60;;
9156;SDS011;4613;48.392;9.998;2023-06-22T06:59:18;3.77;;;2.40;;
9156;SDS011;4613;48.392;9.998;2023-06-22T07:02:11;4.50;;;2.70;;
9156;SDS011;4613;48.392;9.998;2023-06-22T07:05:00;3.33;;;2.87;;
9156;SDS011;4613;48.392;9.998;2023-06-22T07:07:53;3.03;;;2.60;;
9156;SDS011;4613;48.392;9.998;2023-06-22T07:10:43;5.10;;;3.00;;
9156;SDS011;4613;48.392;9.998;2023-06-22T07:13:32;3.30;;;3.00;;
9156;SDS011;4613;48.392;9.998;2023-06-22T07:16:22;3.00;;;2.67;;
9156;SDS011;4613;48.392;9.998;2023-06-22T07:19:12;3.17;;;2.37;;
9156;SDS011;4613;48.392;9.998;2023-06-22T07:22:02;3.57;;;2.93;;
9156;SDS011;4613;48.392;9.998;2023-06-22T07:24:51;6.67;;;3.73;;
9156;SDS011;4613;48.392;9.998;2023-06-22T07:27:57;4.37;;;3.30;;
9156;SDS011;4613;48.392;9.998;2023-06-22T07:30:53;3.50;;;2.77;;
9156;SDS011;4613;48.392;9.998;2023-06-22T07:33:42;4.47;;;3.00;;
9156;SDS011;4613;48.392;9.998;2023-06-22T07:36:31;4.63;;;2.73;;
9156;SDS011;4613;48.392;9.998;2023-06-22T07:39:20;3.47;;;2.73;;
9156;SDS011;4613;48.392;9.998;2023-06-22T07:42:14;3.90;;;3.00;;
9156;SDS011;4613;48.392;9.998;2023-06-22T07:45:07;3.87;;;2.83;;
9156;SDS011;4613;48.392;9.998;2023-06-22T07:47:57;4.33;;;3.30;;
9156;SDS011;4613;48.392;9.998;2023-06-22T07:50:46;3.30;;;2.70;;
9156;SDS011;4613;48.392;9.998;2023-06-22T07:53:35;4.63;;;3.00;;
9156;SDS011;4613;48.392;9.998;2023-06-22T07:56:24;4.30;;;3.10;;
9156;SDS011;4613;48.392;9.998;2023-06-22T07:59:13;2.87;;;2.60;;
9156;SDS011;4613;48.392;9.998;2023-06-22T08:02:03;4.23;;;3.77;;
9156;SDS011;4613;48.392;9.998;2023-06-22T08:04:53;8.17;;;4.00;;
9156;SDS011;4613;48.392;9.998;2023-06-22T08:07:42;6.27;;;3.77;;
9156;SDS011;4613;48.392;9.998;2023-06-22T08:10:33;3.60;;;3.10;;
9156;SDS011;4613;48.392;9.998;2023-06-22T08:13:23;4.60;;;3.10;;
9156;SDS011;4613;48.392;9.998;2023-06-22T08:16:12;3.90;;;2.70;;
9156;SDS011;4613;48.392;9.998;2023-06-22T08:19:01;3.57;;;2.93;;
9156;SDS011;4613;48.392;9.998;2023-06-22T08:21:50;4.67;;;3.40;;
9156;SDS011;4613;48.392;9.998;2023-06-22T08:24:39;4.97;;;3.20;;
9156;SDS011;4613;48.392;9.998;2023-06-22T08:27:28;3.90;;;3.50;;
9156;SDS011;4613;48.392;9.998;2023-06-22T08:30:19;5.03;;;3.80;;
9156;SDS011;4613;48.392;9.998;2023-06-22T08:33:08;5.83;;;3.57;;
9156;SDS011;4613;48.392;9.998;2023-06-22T08:35:58;3.87;;;3.23;;
9156;SDS011;4613;48.392;9.998;2023-06-22T08:38:48;3.07;;;2.70;;
9156;SDS011;4613;48.392;9.998;2023-06-22T08:41:39;3.90;;;2.90;;
9156;SDS011;4613;48.392;9.998;2023-06-22T08:44:29;5.27;;;2.93;;
9156;SDS011;4613;48.392;9.998;2023-06-22T08:47:18;3.33;;;2.60;;
9156;SDS011;4613;48.392;9.998;2023-06-22T08:50:10;3.43;;;3.13;;
9156;SDS011;4613;48.392;9.998;2023-06-22T08:53:00;4.57;;;3.20;;
9156;SDS011;4613;48.392;9.998;2023-06-22T08:55:49;5.90;;;3.20;;
9156;SDS011;4613;48.392;9.998;2023-06-22T08:58:39;3.87;;;3.03;;
9156;SDS011;4613;48.392;9.998;2023-06-22T09:01:28;3.57;;;3.10;;
9156;SDS011;4613;48.392;9.998;2023-06-22T09:04:17;4.70;;;3.33;;
9156;SDS011;4613;48.392;9.998;2023-06-22T09:07:06;4.73;;;3.67;;
9156;SDS011;4613;48.392;9.998;2023-06-22T09:09:55;4.53;;;3.00;;
9156;SDS011;4613;48.392;9.998;2023-06-22T09:12:45;3.73;;;3.40;;
9156;SDS011;4613;48.392;9.998;2023-06-22T09:15:34;5.20;;;3.30;;
9156;SDS011;4613;48.392;9.998;2023-06-22T09:18:23;6.87;;;3.20;;
9156;SDS011;4613;48.392;9.998;2023-06-22T09:21:12;3.43;;;2.87;;
9156;SDS011;4613;48.392;9.998;2023-06-22T09:24:01;6.77;;;3.40;;
9156;SDS011;4613;48.392;9.998;2023-06-22T09:26:51;4.43;;;3.30;;
9156;SDS011;4613;48.392;9.998;2023-06-22T09:29:40;7.23;;;3.67;;
9156;SDS011;4613;48.392;9.998;2023-06-22T09:32:29;5.13;;;3.20;;
9156;SDS011;4613;48.392;9.998;2023-06-22T09:35:17;3.90;;;2.93;;
9156;SDS011;4613;48.392;9.998;2023-06-22T09:38:06;5.53;;;3.20;;
9156;SDS011;4613;48.392;9.998;2023-06-22T09:40:56;3.40;;;2.90;;
9156;SDS011;4613;48.392;9.998;2023-06-22T09:43:45;4.40;;;3.40;;
9156;SDS011;4613;48.392;9.998;2023-06-22T09:46:34;4.03;;;2.80;;
9156;SDS011;4613;48.392;9.998;2023-06-22T09:49:23;3.50;;;3.00;;
9156;SDS011;4613;48.392;9.998;2023-06-22T09:52:12;3.73;;;3.20;;
9156;SDS011;4613;48.392;9.998;2023-06-22T09:55:01;4.27;;;3.27;;
9156;SDS011;4613;48.392;9.998;2023-06-22T09:57:52;3.07;;;2.73;;
9156;SDS011;4613;48.392;9.998;2023-06-22T10:00:43;4.10;;;2.90;;
9156;SDS011;4613;48.392;9.998;2023-06-22T10:03:32;4.60;;;2.67;;
9156;SDS011;4613;48.392;9.998;2023-06-22T10:06:21;5.33;;;2.87;;
9156;SDS011;4613;48.392;9.998;2023-06-22T10:09:19;4.30;;;2.87;;
9156;SDS011;4613;48.392;9.998;2023-06-22T10:12:09;7.47;;;3.23;;
9156;SDS011;4613;48.392;9.998;2023-06-22T10:14:59;5.73;;;3.13;;
9156;SDS011;4613;48.392;9.998;2023-06-22T10:17:48;4.53;;;3.33;;
9156;SDS011;4613;48.392;9.998;2023-06-22T10:20:38;3.37;;;3.07;;
9156;SDS011;4613;48.392;9.998;2023-06-22T10:23:27;4.57;;;3.13;;
9156;SDS011;4613;48.392;9.998;2023-06-22T10:26:16;6.33;;;3.00;;
9156;SDS011;4613;48.392;9.998;2023-06-22T10:29:05;4.63;;;3.23;;
9156;SDS011;4613;48.392;9.998;2023-06-22T10:31:54;6.33;;;3.60;;
9156;SDS011;4613;48.392;9.998;2023-06-22T10:34:43;5.70;;;3.10;;
9156;SDS011;4613;48.392;9.998;2023-06-22T10:37:32;3.37;;;2.90;;
9156;SDS011;4613;48.392;9.998;2023-06-22T10:40:21;6.70;;;2.63;;
9156;SDS011;4613;48.392;9.998;2023-06-22T10:43:10;3.17;;;2.50;;
9156;SDS011;4613;48.392;9.998;2023-06-22T10:45:59;4.90;;;3.03;;
9156;SDS011;4613;48.392;9.998;2023-06-22T10:48:49;5.10;;;3.10;;
9156;SDS011;4613;48.392;9.998;2023-06-22T10:51:38;6.97;;;2.93;;
9156;SDS011;4613;48.392;9.998;2023-06-22T10:54:27;4.33;;;2.80;;
9156;SDS011;4613;48.392;9.998;2023-06-22T10:57:17;3.17;;;2.80;;
9156;SDS011;4613;48.392;9.998;2023-06-22T11:00:07;4.63;;;2.87;;
9156;SDS011;4613;48.392;9.998;2023-06-22T11:02:57;5.77;;;2.70;;
9156;SDS011;4613;48.392;9.998;2023-06-22T11:05:47;3.90;;;2.60;;
9156;SDS011;4613;48.392;9.998;2023-06-22T11:08:36;4.13;;;2.87;;
9156;SDS011;4613;48.392;9.998;2023-06-22T11:11:25;3.37;;;2.60;;
9156;SDS011;4613;48.392;9.998;2023-06-22T11:14:15;4.37;;;2.60;;
9156;SDS011;4613;48.392;9.998;2023-06-22T11:17:04;5.20;;;2.70;;
9156;SDS011;4613;48.392;9.998;2023-06-22T11:19:54;5.33;;;2.80;;
9156;SDS011;4613;48.392;9.998;2023-06-22T11:22:44;5.77;;;2.67;;
9156;SDS011;4613;48.392;9.998;2023-06-22T11:25:33;4.27;;;2.50;;
9156;SDS011;4613;48.392;9.998;2023-06-22T11:28:27;4.57;;;2.83;;
9156;SDS011;4613;48.392;9.998;2023-06-22T11:31:16;2.23;;;2.13;;
9156;SDS011;4613;48.392;9.998;2023-06-22T11:34:05;4.93;;;2.40;;
9156;SDS011;4613;48.392;9.998;2023-06-22T11:36:54;4.80;;;2.63;;
9156;SDS011;4613;48.392;9.998;2023-06-22T11:39:43;3.43;;;2.23;;
9156;SDS011;4613;48.392;9.998;2023-06-22T11:42:32;3.57;;;2.60;;
9156;SDS011;4613;48.392;9.998;2023-06-22T11:45:23;2.93;;;2.60;;
9156;SDS011;4613;48.392;9.998;2023-06-22T11:48:12;5.90;;;3.20;;
9156;SDS011;4613;48.392;9.998;2023-06-22T11:51:01;3.97;;;2.63;;
9156;SDS011;4613;48.392;9.998;2023-06-22T11:53:52;6.10;;;2.60;;
9156;SDS011;4613;48.392;9.998;2023-06-22T11:56:42;3.10;;;2.50;;
9156;SDS011;4613;48.392;9.998;2023-06-22T11:59:31;3.00;;;2.70;;
9156;SDS011;4613;48.392;9.998;2023-06-22T12:02:20;6.23;;;2.90;;
9156;SDS011;4613;48.392;9.998;2023-06-22T12:05:09;4.50;;;3.00;;
9156;SDS011;4613;48.392;9.998;2023-06-22T12:07:59;3.53;;;2.57;;
9156;SDS011;4613;48.392;9.998;2023-06-22T12:10:49;5.07;;;3.13;;
9156;SDS011;4613;48.392;9.998;2023-06-22T12:13:38;4.53;;;3.20;;
9156;SDS011;4613;48.392;9.998;2023-06-22T12:16:28;3.30;;;2.70;;
9156;SDS011;4613;48.392;9.998;2023-06-22T12:19:17;7.83;;;3.07;;
9156;SDS011;4613;48.392;9.998;2023-06-22T12:22:07;4.93;;;3.67;;
9156;SDS011;4613;48.392;9.998;2023-06-22T12:24:56;4.03;;;3.60;;
9156;SDS011;4613;48.392;9.998;2023-06-22T12:27:45;7.03;;;3.23;;
9156;SDS011;4613;48.392;9.998;2023-06-22T12:30:34;6.70;;;3.93;;
9156;SDS011;4613;48.392;9.998;2023-06-22T12:33:24;6.33;;;3.17;;
9156;SDS011;4613;48.392;9.998;2023-06-22T12:36:14;5.57;;;2.83;;
9156;SDS011;4613;48.392;9.998;2023-06-22T12:39:05;4.03;;;3.00;;
9156;SDS011;4613;48.392;9.998;2023-06-22T12:41:55;7.90;;;2.90;;
9156;SDS011;4613;48.392;9.998;2023-06-22T12:44:44;6.67;;;2.83;;
9156;SDS011;4613;48.392;9.998;2023-06-22T12:47:33;4.67;;;3.20;;
9156;SDS011;4613;48.392;9.998;2023-06-22T12:50:22;3.40;;;3.10;;
9156;SDS011;4613;48.392;9.998;2023-06-22T12:53:11;5.97;;;3.30;;
9156;SDS011;4613;48.392;9.998;2023-06-22T12:56:00;3.80;;;2.90;;
9156;SDS011;4613;48.392;9.998;2023-06-22T12:58:49;4.13;;;2.77;;
9156;SDS011;4613;48.392;9.998;2023-06-22T13:01:39;6.27;;;3.13;;
9156;SDS011;4613;48.392;9.998;2023-06-22T13:04:28;3.87;;;3.20;;
9156;SDS011;4613;48.392;9.998;2023-06-22T13:07:17;4.07;;;3.07;;
9156;SDS011;4613;48.392;9.998;2023-06-22T13:10:06;4.33;;;3.23;;
9156;SDS011;4613;48.392;9.998;2023-06-22T13:12:58;4.20;;;2.77;;
9156;SDS011;4613;48.392;9.998;2023-06-22T13:15:49;3.90;;;3.10;;
9156;SDS011;4613;48.392;9.998;2023-06-22T13:18:39;3.30;;;2.57;;
9156;SDS011;4613;48.392;9.998;2023-06-22T13:21:28;4.43;;;3.10;;
9156;SDS011;4613;48.392;9.998;2023-06-22T13:24:17;5.33;;;3.20;;
9156;SDS011;4613;48.392;9.998;2023-06-22T13:27:06;3.80;;;2.83;;
9156;SDS011;4613;48.392;9.998;2023-06-22T13:29:55;3.50;;;2.60;;
9156;SDS011;4613;48.392;9.998;2023-06-22T13:32:44;4.37;;;2.80;;
9156;SDS011;4613;48.392;9.998;2023-06-22T13:35:34;3.20;;;2.70;;
9156;SDS011;4613;48.392;9.998;2023-06-22T13:38:26;4.37;;;2.80;;
9156;SDS011;4613;48.392;9.998;2023-06-22T13:41:15;3.53;;;3.00;;
9156;SDS011;4613;48.392;9.998;2023-06-22T13:44:05;4.27;;;2.97;;
9156;SDS011;4613;48.392;9.998;2023-06-22T13:46:55;3.73;;;2.80;;
9156;SDS011;4613;48.392;9.998;2023-06-22T13:49:44;5.07;;;2.87;;
9156;SDS011;4613;48.392;9.998;2023-06-22T13:52:33;5.00;;;2.80;;
9156;SDS011;4613;48.392;9.998;2023-06-22T13:55:23;3.23;;;2.57;;
9156;SDS011;4613;48.392;9.998;2023-06-22T13:58:13;3.20;;;2.57;;
9156;SDS011;4613;48.392;9.998;2023-06-22T14:01:03;4.90;;;3.00;;
9156;SDS011;4613;48.392;9.998;2023-06-22T14:03:52;4.53;;;3.00;;
9156;SDS011;4613;48.392;9.998;2023-06-22T14:06:42;4.53;;;2.73;;
9156;SDS011;4613;48.392;9.998;2023-06-22T14:09:34;5.17;;;3.07;;
9156;SDS011;4613;48.392;9.998;2023-06-22T14:12:23;3.33;;;2.63;;
9156;SDS011;4613;48.392;9.998;2023-06-22T14:15:13;4.63;;;2.80;;
9156;SDS011;4613;48.392;9.998;2023-06-22T14:18:02;5.17;;;3.00;;
9156;SDS011;4613;48.392;9.998;2023-06-22T14:20:51;3.60;;;3.03;;
9156;SDS011;4613;48.392;9.998;2023-06-22T14:23:40;5.30;;;3.50;;
9156;SDS011;4613;48.392;9.998;2023-06-22T14:26:30;5.27;;;3.07;;
9156;SDS011;4613;48.392;9.998;2023-06-22T14:29:19;5.30;;;3.30;;
9156;SDS011;4613;48.392;9.998;2023-06-22T14:32:08;4.10;;;3.10;;
9156;SDS011;4613;48.392;9.998;2023-06-22T14:34:57;5.07;;;3.13;;
9156;SDS011;4613;48.392;9.998;2023-06-22T14:37:46;3.40;;;2.93;;
9156;SDS011;4613;48.392;9.998;2023-06-22T14:40:36;7.80;;;3.63;;
9156;SDS011;4613;48.392;9.998;2023-06-22T14:43:25;3.83;;;2.87;;
9156;SDS011;4613;48.392;9.998;2023-06-22T14:46:15;6.60;;;3.67;;
9156;SDS011;4613;48.392;9.998;2023-06-22T14:49:05;3.53;;;2.80;;
9156;SDS011;4613;48.392;9.998;2023-06-22T14:51:55;4.37;;;3.10;;
9156;SDS011;4613;48.392;9.998;2023-06-22T14:54:44;4.37;;;3.30;;
9156;SDS011;4613;48.392;9.998;2023-06-22T14:57:34;5.30;;;3.37;;
9156;SDS011;4613;48.392;9.998;2023-06-22T15:00:23;4.43;;;3.13;;
9156;SDS011;4613;48.392;9.998;2023-06-22T15:03:12;4.73;;;3.30;;
9156;SDS011;4613;48.392;9.998;2023-06-22T15:06:06;8.33;;;4.30;;
9156;SDS011;4613;48.392;9.998;2023-06-22T15:08:56;5.70;;;4.30;;
9156;SDS011;4613;48.392;9.998;2023-06-22T15:11:45;5.67;;;3.70;;
9156;SDS011;4613;48.392;9.998;2023-06-22T15:14:34;4.07;;;3.27;;
9156;SDS011;4613;48.392;9.998;2023-06-22T15:17:23;5.37;;;4.17;;
9156;SDS011;4613;48.392;9.998;2023-06-22T15:20:17;4.53;;;3.70;;
9156;SDS011;4613;48.392;9.998;2023-06-22T15:23:06;6.10;;;3.67;;
9156;SDS011;4613;48.392;9.998;2023-06-22T15:25:57;6.77;;;3.87;;
9156;SDS011;4613;48.392;9.998;2023-06-22T15:28:47;5.77;;;4.23;;
9156;SDS011;4613;48.392;9.998;2023-06-22T15:31:36;6.17;;;3.60;;
9156;SDS011;4613;48.392;9.998;2023-06-22T15:34:26;4.63;;;3.60;;
9156;SDS011;4613;48.392;9.998;2023-06-22T15:37:15;4.53;;;3.63;;
9156;SDS011;4613;48.392;9.998;2023-06-22T15:40:05;4.47;;;3.47;;
9156;SDS011;4613;48.392;9.998;2023-06-22T15:42:55;4.50;;;3.80;;
9156;SDS011;4613;48.392;9.998;2023-06-22T15:45:44;5.07;;;3.90;;
9156;SDS011;4613;48.392;9.998;2023-06-22T15:48:33;4.90;;;3.77;;
9156;SDS011;4613;48.392;9.998;2023-06-22T15:51:22;4.23;;;3.83;;
9156;SDS011;4613;48.392;9.998;2023-06-22T15:54:11;5.00;;;3.80;;
9156;SDS011;4613;48.392;9.998;2023-06-22T15:57:00;5.10;;;3.93;;
9156;SDS011;4613;48.392;9.998;2023-06-22T15:59:49;4.20;;;3.73;;
9156;SDS011;4613;48.392;9.998;2023-06-22T16:02:38;5.03;;;3.70;;
9156;SDS011;4613;48.392;9.998;2023-06-22T16:05:28;4.47;;;3.70;;
9156;SDS011;4613;48.392;9.998;2023-06-22T16:08:17;4.93;;;4.00;;
9156;SDS011;4613;48.392;9.998;2023-06-22T16:11:06;5.20;;;3.60;;
9156;SDS011;4613;48.392;9.998;2023-06-22T16:13:56;4.87;;;3.57;;
9156;SDS011;4613;48.392;9.998;2023-06-22T16:16:46;6.33;;;3.97;;
9156;SDS011;4613;48.392;9.998;2023-06-22T16:19:35;6.57;;;3.77;;
9156;SDS011;4613;48.392;9.998;2023-06-22T16:22:24;7.60;;;3.73;;
9156;SDS011;4613;48.392;9.998;2023-06-22T16:25:13;5.23;;;4.07;;
9156;SDS011;4613;48.392;9.998;2023-06-22T16:28:03;6.83;;;4.20;;
9156;SDS011;4613;48.392;9.998;2023-06-22T16:30:52;4.30;;;3.60;;
9156;SDS011;4613;48.392;9.998;2023-06-22T16:33:42;4.73;;;3.37;;
9156;SDS011;4613;48.392;9.998;2023-06-22T16:36:35;7.37;;;4.33;;
9156;SDS011;4613;48.392;9.998;2023-06-22T16:39:25;4.83;;;4.20;;
9156;SDS011;4613;48.392;9.998;2023-06-22T16:42:14;3.90;;;3.33;;
9156;SDS011;4613;48.392;9.998;2023-06-22T16:45:03;11.80;;;4.00;;
9156;SDS011;4613;48.392;9.998;2023-06-22T16:47:53;4.60;;;3.63;;
9156;SDS011;4613;48.392;9.998;2023-06-22T16:50:42;3.90;;;3.57;;
9156;SDS011;4613;48.392;9.998;2023-06-22T16:53:32;5.23;;;3.80;;
9156;SDS011;4613;48.392;9.998;2023-06-22T16:56:25;5.63;;;3.60;;
9156;SDS011;4613;48.392;9.998;2023-06-22T16:59:17;5.33;;;3.77;;
9156;SDS011;4613;48.392;9.998;2023-06-22T17:02:09;6.70;;;3.90;;
9156;SDS011;4613;48.392;9.998;2023-06-22T17:05:05;5.77;;;3.70;;
9156;SDS011;4613;48.392;9.998;2023-06-22T17:07:58;7.17;;;3.80;;
9156;SDS011;4613;48.392;9.998;2023-06-22T17:10:52;5.50;;;3.53;;
9156;SDS011;4613;48.392;9.998;2023-06-22T17:13:42;4.83;;;3.53;;
9156;SDS011;4613;48.392;9.998;2023-06-22T17:16:31;5.63;;;3.43;;
9156;SDS011;4613;48.392;9.998;2023-06-22T17:19:23;3.87;;;3.47;;
9156;SDS011;4613;48.392;9.998;2023-06-22T17:22:13;6.20;;;3.53;;
9156;SDS011;4613;48.392;9.998;2023-06-22T17:25:02;4.60;;;3.23;;
9156;SDS011;4613;48.392;9.998;2023-06-22T17:27:58;5.43;;;3.33;;
9156;SDS011;4613;48.392;9.998;2023-06-22T17:31:05;4.30;;;2.97;;
9156;SDS011;4613;48.392;9.998;2023-06-22T17:33:58;4.50;;;2.90;;
9156;SDS011;4613;48.392;9.998;2023-06-22T17:36:50;3.13;;;2.70;;
9156;SDS011;4613;48.392;9.998;2023-06-22T17:39:40;4.87;;;2.87;;
9156;SDS011;4613;48.392;9.998;2023-06-22T17:42:30;4.87;;;2.37;;
9156;SDS011;4613;48.392;9.998;2023-06-22T17:45:20;4.57;;;2.60;;